Time;durP1;ratioP1;P1;durP2;ratioP2;P2;SDS_P1;SDS_P2;PMS_P1;PMS_P2;Temp;Humidity;BMP_temperature;BMP_pressure;BME280_temperature;BME280_humidity;BME280_pressure;Samples;Min_cycle;Max_cycle;Signal;HPM_P1;HPM_P2
2021/08/25 00:01:16;;;;;;;0.00;0.00;;;;;;;19.05;63.73;102815.00;5073478;28;20040;-96
2021/08/25 00:03:44;;;;;;;0.10;0.10;;;;;;;19.03;64.10;102806.09;5077667;28;20040;-94
2021/08/25 00:06:11;;;;;;;0.10;0.10;;;;;;;19.03;63.87;102813.28;5072207;28;20017;-96
2021/08/25 00:08:38;;;;;;;0.10;0.10;;;;;;;19.03;63.68;102807.91;5055752;28;20404;-96
2021/08/25 00:11:05;;;;;;;0.20;0.20;;;;;;;19.00;63.57;102806.16;5070897;28;20033;-95
2021/08/25 00:13:31;;;;;;;0.10;0.10;;;;;;;18.96;64.04;102812.53;5068131;28;20119;-96
2021/08/25 00:15:58;;;;;;;1.55;0.38;;;;;;;18.94;63.57;102806.34;5066620;28;20058;-96
2021/08/25 00:18:25;;;;;;;0.13;0.13;;;;;;;18.90;63.95;102812.63;5063837;28;20025;-96
2021/08/25 00:20:52;;;;;;;0.80;0.80;;;;;;;18.88;63.77;102799.25;5062906;28;20119;-96
2021/08/25 00:23:18;;;;;;;0.10;0.10;;;;;;;18.85;63.75;102807.38;5042262;28;20041;-96
2021/08/25 00:25:45;;;;;;;0.00;0.00;;;;;;;18.84;65.20;102799.34;5024671;28;20025;-93
2021/08/25 00:28:12;;;;;;;0.17;0.17;;;;;;;18.83;64.66;102797.59;5058404;28;20071;-96
2021/08/25 00:30:39;;;;;;;0.10;0.10;;;;;;;18.82;64.17;102793.16;5059762;28;20129;-96
2021/08/25 00:33:06;;;;;;;0.00;0.00;;;;;;;18.81;64.09;102796.75;5058733;28;20537;-95
2021/08/25 00:35:32;;;;;;;0.35;0.35;;;;;;;18.80;64.33;102798.53;5058080;28;20047;-96
2021/08/25 00:37:58;;;;;;;0.20;0.20;;;;;;;18.78;64.25;102791.44;5057843;28;20032;-96
2021/08/25 00:40:25;;;;;;;0.05;0.05;;;;;;;18.77;64.59;102782.50;5057923;28;20037;-96
2021/08/25 00:42:52;;;;;;;0.10;0.10;;;;;;;18.76;64.57;102781.63;5040114;28;20021;-95
2021/08/25 00:45:18;;;;;;;0.08;0.08;;;;;;;18.75;64.18;102776.28;5057654;28;20112;-96
2021/08/25 00:47:53;;;;;;;0.10;0.10;;;;;;;18.74;64.10;102777.19;5070306;28;20029;-92
2021/08/25 00:50:20;;;;;;;0.00;0.00;;;;;;;18.72;64.11;102785.31;5045047;28;20037;-95
2021/08/25 00:52:46;;;;;;;0.10;0.10;;;;;;;18.70;64.12;102776.38;5058333;28;20166;-96
2021/08/25 00:55:15;;;;;;;0.10;0.10;;;;;;;18.69;63.91;102780.03;5057431;28;20045;-95
2021/08/25 00:57:44;;;;;;;0.00;0.00;;;;;;;18.67;64.07;102779.16;5057313;28;20033;-91
2021/08/25 01:00:11;;;;;;;0.32;0.32;;;;;;;18.65;63.96;102772.94;5057105;28;20107;-96
2021/08/25 01:02:55;;;;;;;0.20;0.20;;;;;;;18.67;63.99;102776.47;5059702;28;20032;-96
2021/08/25 01:05:22;;;;;;;0.10;0.10;;;;;;;18.62;63.91;102777.47;5066364;28;20084;-90
2021/08/25 01:07:54;;;;;;;0.40;0.40;;;;;;;18.63;64.41;102774.78;5079651;28;20005;-90
2021/08/25 01:10:30;;;;;;;0.10;0.10;;;;;;;18.61;64.15;102776.63;5062692;28;20025;-96
2021/08/25 01:12:58;;;;;;;0.15;0.15;;;;;;;18.58;64.61;102765.97;5058553;28;20029;-94
2021/08/25 01:15:30;;;;;;;0.55;0.55;;;;;;;18.59;64.38;102767.69;5057929;28;20049;-94
2021/08/25 01:17:58;;;;;;;0.30;0.30;;;;;;;18.54;64.05;102769.63;5039990;28;20033;-96
2021/08/25 01:20:26;;;;;;;0.10;0.10;;;;;;;18.54;64.19;102766.94;5039968;28;20040;-96
2021/08/25 01:22:54;;;;;;;0.10;0.10;;;;;;;18.53;64.28;102762.47;5057579;28;20415;-95
2021/08/25 01:25:24;;;;;;;0.00;0.00;;;;;;;18.53;64.30;102767.84;5057583;28;20025;-95
2021/08/25 01:28:06;;;;;;;0.10;0.10;;;;;;;18.53;64.44;102773.22;5043200;28;20029;-96
2021/08/25 01:30:36;;;;;;;0.10;0.10;;;;;;;18.51;64.57;102769.69;5059397;28;20021;-96
2021/08/25 01:33:03;;;;;;;0.10;0.10;;;;;;;18.48;64.99;102772.44;5058148;28;20033;-95
2021/08/25 01:35:33;;;;;;;0.10;0.10;;;;;;;18.50;64.37;102770.63;5056330;28;20029;-96
2021/08/25 01:38:01;;;;;;;0.00;0.00;;;;;;;18.48;64.72;102767.97;5057185;28;20025;-95
2021/08/25 01:40:34;;;;;;;0.08;0.08;;;;;;;18.46;64.89;102767.09;5057474;28;20029;-96
2021/08/25 01:43:02;;;;;;;0.10;0.10;;;;;;;18.46;65.07;102763.56;5057732;28;20025;-96
2021/08/25 01:45:29;;;;;;;0.10;0.10;;;;;;;18.48;64.57;102764.38;5056358;28;20025;-96
2021/08/25 01:47:57;;;;;;;1.45;0.85;;;;;;;18.47;64.56;102752.78;5056842;28;20025;-96
2021/08/25 01:50:24;;;;;;;0.10;0.10;;;;;;;18.48;64.71;102756.34;5039696;28;20041;-96
2021/08/25 01:52:50;;;;;;;0.05;0.05;;;;;;;18.45;65.12;102764.47;5056900;28;20029;-96
2021/08/25 01:55:17;;;;;;;0.10;0.10;;;;;;;18.43;65.09;102754.66;5055864;28;20029;-94
2021/08/25 01:57:44;;;;;;;0.10;0.10;;;;;;;18.47;65.08;102751.88;5055550;28;20083;-96
2021/08/25 02:00:18;;;;;;;0.00;0.00;;;;;;;18.42;65.54;102750.19;5038096;28;20036;-96
2021/08/25 02:02:44;;;;;;;0.10;0.10;;;;;;;18.46;64.87;102737.59;5039853;28;20479;-95
2021/08/25 02:05:17;;;;;;;0.10;0.10;;;;;;;18.50;65.09;102735.72;5055933;28;20489;-96
2021/08/25 02:07:44;;;;;;;0.10;0.10;;;;;;;18.47;65.28;102730.41;5055800;28;20024;-96
2021/08/25 02:10:10;;;;;;;1.58;1.20;;;;;;;18.47;64.91;102730.41;5055270;28;20021;-96
2021/08/25 02:12:37;;;;;;;0.10;0.10;;;;;;;18.47;64.83;102727.72;5055726;28;20025;-96
2021/08/25 02:15:04;;;;;;;1.13;0.55;;;;;;;18.45;64.88;102717.03;5054609;28;20055;-96
2021/08/25 02:17:30;;;;;;;0.03;0.03;;;;;;;18.42;64.80;102728.72;5055339;28;20032;-96
2021/08/25 02:19:57;;;;;;;0.10;0.10;;;;;;;18.41;65.17;102720.72;5055211;28;20090;-96
2021/08/25 02:22:23;;;;;;;0.10;0.10;;;;;;;18.40;64.71;102725.19;5055274;28;20033;-96
2021/08/25 02:24:49;;;;;;;0.10;0.10;;;;;;;18.39;64.79;102720.75;5055210;28;20028;-92
2021/08/25 02:27:16;;;;;;;0.10;0.10;;;;;;;18.38;64.74;102718.97;5057195;28;20029;-95
2021/08/25 02:29:45;;;;;;;3.10;0.65;;;;;;;18.37;64.91;102719.91;5056047;28;20036;-96
2021/08/25 02:32:11;;;;;;;0.10;0.10;;;;;;;18.36;64.67;102712.75;5055724;28;20514;-96
2021/08/25 02:34:38;;;;;;;0.10;0.10;;;;;;;18.35;64.82;102710.13;5055377;28;20059;-96
2021/08/25 02:37:04;;;;;;;0.10;0.10;;;;;;;18.32;64.86;102716.44;5055196;28;20029;-96
2021/08/25 02:39:30;;;;;;;0.10;0.10;;;;;;;18.30;64.89;102712.91;5055294;28;20036;-96
2021/08/25 02:41:57;;;;;;;0.45;0.45;;;;;;;18.30;64.93;102712.91;5054960;28;20044;-91
2021/08/25 02:44:23;;;;;;;0.10;0.10;;;;;;;18.27;65.03;102713.84;5055056;28;20033;-96
2021/08/25 02:46:49;;;;;;;0.00;0.00;;;;;;;18.27;64.76;102710.31;5055006;28;20029;-93
2021/08/25 02:49:16;;;;;;;0.00;0.00;;;;;;;18.26;64.93;102706.72;5054880;28;20028;-96
2021/08/25 02:51:42;;;;;;;0.10;0.10;;;;;;;18.22;64.81;102707.72;5054679;28;20033;-96
2021/08/25 02:54:09;;;;;;;0.00;0.00;;;;;;;18.20;65.11;102711.34;5054570;28;20490;-96
2021/08/25 02:56:35;;;;;;;0.05;0.05;;;;;;;18.19;64.94;102704.22;5055110;28;20067;-96
2021/08/25 02:59:02;;;;;;;0.90;0.50;;;;;;;18.18;64.74;102707.81;5055854;28;20025;-96
2021/08/25 03:01:28;;;;;;;0.85;0.85;;;;;;;18.17;64.79;102704.25;5054948;28;20071;-96
2021/08/25 03:03:54;;;;;;;0.08;0.08;;;;;;;18.15;65.29;102702.53;5054670;28;20029;-96
2021/08/25 03:06:21;;;;;;;1.02;1.02;;;;;;;18.16;64.96;102701.59;5054532;28;20021;-94
2021/08/25 03:08:47;;;;;;;0.60;0.47;;;;;;;18.13;65.15;102693.63;5055389;28;20132;-95
2021/08/25 03:11:15;;;;;;;0.30;0.30;;;;;;;18.15;64.88;102697.16;5053547;28;20044;-96
2021/08/25 03:13:42;;;;;;;0.10;0.10;;;;;;;18.11;65.47;102693.66;5054967;28;20053;-96
2021/08/25 03:16:15;;;;;;;0.10;0.10;;;;;;;18.10;65.04;102686.53;5054888;28;20025;-96
2021/08/25 03:18:41;;;;;;;0.22;0.22;;;;;;;18.10;65.03;102683.84;5055127;28;20488;-94
2021/08/25 03:21:08;;;;;;;0.10;0.10;;;;;;;18.07;64.81;102683.94;5045960;28;20041;-85
2021/08/25 03:23:42;;;;;;;0.10;0.10;;;;;;;18.06;64.96;102677.66;5072655;28;20089;-91
2021/08/25 03:26:08;;;;;;;0.00;0.00;;;;;;;18.01;65.54;102687.59;5070355;28;20040;-94
2021/08/25 03:28:41;;;;;;;0.13;0.13;;;;;;;18.03;65.23;102682.19;5069946;28;20105;-96
2021/08/25 03:31:07;;;;;;;0.00;0.00;;;;;;;18.00;65.28;102685.84;5040379;28;20401;-96
2021/08/25 03:33:35;;;;;;;0.10;0.10;;;;;;;18.00;65.34;102672.44;5056541;28;20027;-96
2021/08/25 03:36:22;;;;;;;0.35;0.35;;;;;;;18.08;65.47;102681.19;5005751;28;20096;-93
2021/08/25 03:38:48;;;;;;;1.05;0.93;;;;;;;17.99;65.08;102681.38;5055081;28;20021;-96
2021/08/25 03:41:15;;;;;;;0.52;0.52;;;;;;;17.98;65.09;102670.69;5038341;28;20033;-96
2021/08/25 03:43:41;;;;;;;1.17;0.47;;;;;;;17.96;65.10;102670.75;5054489;28;20056;-96
2021/08/25 03:46:07;;;;;;;0.10;0.10;;;;;;;17.96;64.84;102662.69;5054296;28;20025;-95
2021/08/25 03:48:35;;;;;;;0.10;0.10;;;;;;;17.96;64.90;102660.00;5054288;28;20033;-95
2021/08/25 03:51:01;;;;;;;1.70;0.28;;;;;;;17.92;65.39;102663.66;5036318;28;20040;-93
2021/08/25 03:53:28;;;;;;;0.15;0.15;;;;;;;17.92;64.80;102659.16;5054057;28;20025;-95
2021/08/25 03:55:55;;;;;;;0.10;0.10;;;;;;;17.91;64.72;102661.88;5053953;28;20032;-95
2021/08/25 03:58:26;;;;;;;0.03;0.03;;;;;;;17.90;65.07;102665.47;5053859;28;20119;-95
2021/08/25 04:00:53;;;;;;;0.10;0.10;;;;;;;17.90;65.06;102662.78;5037008;28;20041;-96
2021/08/25 04:03:19;;;;;;;0.00;0.00;;;;;;;17.87;64.56;102661.06;5054145;28;20472;-92
2021/08/25 04:05:45;;;;;;;0.00;0.00;;;;;;;17.85;65.34;102660.19;5053920;28;20357;-96
2021/08/25 04:08:12;;;;;;;0.10;0.10;;;;;;;17.85;65.15;102657.53;5054135;28;20475;-95
2021/08/25 04:10:42;;;;;;;0.17;0.17;;;;;;;17.86;64.80;102647.69;5053845;28;20059;-93
2021/08/25 04:13:08;;;;;;;0.10;0.10;;;;;;;17.83;65.06;102645.06;5019656;28;20419;-96
2021/08/25 04:15:35;;;;;;;0.10;0.10;;;;;;;17.81;65.07;102641.53;5053633;28;20028;-95
2021/08/25 04:18:02;;;;;;;0.10;0.10;;;;;;;17.79;65.51;102645.16;5053862;28;20025;-95
2021/08/25 04:20:28;;;;;;;0.20;0.20;;;;;;;17.79;65.10;102636.19;5053908;28;20025;-95
2021/08/25 04:22:54;;;;;;;0.20;0.20;;;;;;;17.78;64.82;102638.00;5035793;28;20049;-96
2021/08/25 04:25:20;;;;;;;0.10;0.10;;;;;;;17.76;64.99;102637.16;5053991;28;20025;-96
2021/08/25 04:27:47;;;;;;;0.10;0.10;;;;;;;17.76;65.21;102636.28;5053751;28;20040;-96
2021/08/25 04:30:13;;;;;;;0.10;0.10;;;;;;;17.76;65.16;102639.84;5053598;28;20392;-93
2021/08/25 04:32:39;;;;;;;0.10;0.10;;;;;;;17.75;64.90;102635.38;5054382;28;20029;-96
2021/08/25 04:35:06;;;;;;;0.10;0.10;;;;;;;17.72;65.19;102632.78;5053560;28;20029;-96
2021/08/25 04:37:33;;;;;;;0.10;0.10;;;;;;;17.73;65.39;102637.25;5036250;28;20056;-95
2021/08/25 04:39:59;;;;;;;0.10;0.10;;;;;;;17.72;65.43;102643.50;5057853;28;20443;-96
2021/08/25 04:42:25;;;;;;;0.10;0.10;;;;;;;17.71;65.37;102639.06;5057298;28;20039;-96
2021/08/25 04:44:52;;;;;;;0.10;0.10;;;;;;;17.71;65.24;102638.19;5057489;28;20029;-94
2021/08/25 04:47:18;;;;;;;0.20;0.20;;;;;;;17.68;65.20;102644.47;5057318;28;20025;-95
2021/08/25 04:49:45;;;;;;;0.10;0.10;;;;;;;17.68;65.30;102639.09;5039365;28;20035;-93
2021/08/25 04:52:11;;;;;;;0.10;0.10;;;;;;;17.66;65.50;102635.59;5058040;28;20036;-93
2021/08/25 04:54:38;;;;;;;0.10;0.10;;;;;;;17.69;65.50;102640.00;5059168;28;20040;-96
2021/08/25 04:57:05;;;;;;;0.10;0.10;;;;;;;17.70;65.36;102637.28;5066363;28;20039;-92
2021/08/25 04:59:32;;;;;;;0.10;0.10;;;;;;;17.69;65.36;102642.69;5024783;28;20419;-96
2021/08/25 05:01:58;;;;;;;0.10;0.10;;;;;;;17.70;65.04;102642.66;5056754;28;20029;-95
2021/08/25 05:04:25;;;;;;;0.10;0.10;;;;;;;17.69;65.20;102640.88;5057221;28;20032;-93
2021/08/25 05:06:51;;;;;;;0.10;0.10;;;;;;;17.70;65.03;102631.94;5039241;28;20029;-94
2021/08/25 05:09:17;;;;;;;0.10;0.10;;;;;;;17.68;65.44;102644.47;5038928;28;20086;-96
2021/08/25 05:11:43;;;;;;;0.10;0.10;;;;;;;17.70;65.32;102637.28;5056574;28;20496;-96
2021/08/25 05:14:09;;;;;;;0.20;0.20;;;;;;;17.69;65.91;102635.50;5057191;28;20464;-96
2021/08/25 05:16:36;;;;;;;0.10;0.10;;;;;;;17.71;65.63;102639.06;5057277;28;20029;-96
2021/08/25 05:19:02;;;;;;;0.10;0.10;;;;;;;17.72;65.57;102638.16;5056577;28;20480;-96
2021/08/25 05:21:28;;;;;;;0.10;0.10;;;;;;;17.73;65.32;102636.34;5057011;28;20422;-96
2021/08/25 05:23:54;;;;;;;0.10;0.10;;;;;;;17.74;65.21;102633.63;5056752;28;20182;-96
2021/08/25 05:26:20;;;;;;;0.10;0.10;;;;;;;17.75;65.29;102629.16;5056105;28;20518;-94
2021/08/25 05:28:46;;;;;;;0.10;0.10;;;;;;;17.74;66.20;102636.28;5056653;28;20037;-96
2021/08/25 05:31:13;;;;;;;0.10;0.10;;;;;;;17.76;65.58;102637.16;5056538;28;20033;-96
2021/08/25 05:33:39;;;;;;;0.17;0.17;;;;;;;17.77;66.07;102635.38;5056784;28;20033;-96
2021/08/25 05:36:05;;;;;;;0.10;0.10;;;;;;;17.78;66.36;102634.44;5056129;28;20036;-95
2021/08/25 05:38:31;;;;;;;0.10;0.10;;;;;;;17.77;66.54;102638.94;5056297;28;20383;-96
2021/08/25 05:40:57;;;;;;;0.10;0.10;;;;;;;17.82;65.86;102635.25;5056012;28;20040;-93
2021/08/25 05:43:23;;;;;;;0.10;0.10;;;;;;;17.85;66.13;102635.19;5038578;28;20384;-95
2021/08/25 05:45:50;;;;;;;0.05;0.05;;;;;;;17.85;65.75;102635.19;5056331;28;20475;-96
2021/08/25 05:48:16;;;;;;;0.20;0.20;;;;;;;17.89;65.82;102643.13;5055901;28;20025;-96
2021/08/25 05:50:42;;;;;;;0.10;0.10;;;;;;;17.92;65.69;102636.84;5055646;28;20051;-96
2021/08/25 05:53:09;;;;;;;0.10;0.10;;;;;;;17.94;65.71;102638.59;5055401;28;20032;-95
2021/08/25 05:55:36;;;;;;;0.30;0.30;;;;;;;17.98;65.80;102626.00;5055817;28;20029;-94
2021/08/25 05:58:04;;;;;;;0.10;0.10;;;;;;;18.01;65.64;102625.91;5055958;28;20028;-96
2021/08/25 06:00:30;;;;;;;0.32;0.32;;;;;;;18.05;65.85;102626.75;5055399;28;20430;-95
2021/08/25 06:02:58;;;;;;;0.10;0.10;;;;;;;18.08;65.53;102632.91;5055995;28;20064;-96
2021/08/25 06:05:25;;;;;;;0.10;0.10;;;;;;;18.13;65.84;102630.13;5055423;28;20103;-96
2021/08/25 06:07:55;;;;;;;0.10;0.10;;;;;;;18.17;65.90;102636.28;5055264;28;20025;-95
2021/08/25 06:10:22;;;;;;;0.17;0.17;;;;;;;18.21;65.53;102640.69;5053701;28;20044;-96
2021/08/25 06:12:48;;;;;;;0.10;0.10;;;;;;;18.19;66.66;102629.09;5055921;28;20033;-95
2021/08/25 06:15:16;;;;;;;0.50;0.50;;;;;;;18.17;66.83;102630.91;5055425;28;20028;-96
2021/08/25 06:17:45;;;;;;;0.20;0.20;;;;;;;18.29;66.04;102635.13;5037766;28;20025;-96
2021/08/25 06:20:13;;;;;;;0.10;0.10;;;;;;;18.31;66.18;102639.53;5055188;28;20028;-96
2021/08/25 06:22:39;;;;;;;0.10;0.10;;;;;;;18.32;66.78;102638.63;5056053;28;20453;-96
2021/08/25 06:25:06;;;;;;;0.73;0.73;;;;;;;18.45;65.84;102630.28;5055398;28;20043;-96
2021/08/25 06:27:32;;;;;;;0.10;0.10;;;;;;;18.46;66.45;102630.22;5055541;28;20021;-96
2021/08/25 06:29:58;;;;;;;0.55;0.55;;;;;;;18.53;66.45;102634.53;5055080;28;20079;-95
2021/08/25 06:32:26;;;;;;;0.10;0.10;;;;;;;18.59;65.68;102631.69;5055661;28;20067;-96
2021/08/25 06:34:52;;;;;;;0.10;0.10;;;;;;;18.70;65.51;102638.59;5056298;28;20025;-93
2021/08/25 06:37:19;;;;;;;0.10;0.10;;;;;;;18.74;65.65;102635.78;5055702;28;20029;-96
2021/08/25 06:39:45;;;;;;;0.10;0.10;;;;;;;18.81;65.59;102639.19;5038176;28;20108;-96
2021/08/25 06:42:13;;;;;;;0.65;0.65;;;;;;;18.86;65.64;102642.63;5055674;28;20127;-96
2021/08/25 06:44:39;;;;;;;0.80;0.65;;;;;;;18.94;65.42;102641.59;5055419;28;20476;-95
2021/08/25 06:47:05;;;;;;;0.10;0.10;;;;;;;18.97;65.65;102639.69;5055723;28;20025;-96
2021/08/25 06:49:31;;;;;;;0.10;0.10;;;;;;;19.03;65.39;102639.53;5055983;28;20029;-96
2021/08/25 06:51:58;;;;;;;0.20;0.20;;;;;;;19.04;65.21;102638.63;5055793;28;20116;-96
2021/08/25 06:54:25;;;;;;;0.10;0.10;;;;;;;19.12;64.94;102642.91;5037850;28;20103;-96
2021/08/25 06:56:51;;;;;;;0.20;0.20;;;;;;;19.04;65.13;102641.31;5055349;28;20052;-96
2021/08/25 06:59:17;;;;;;;0.70;0.70;;;;;;;19.05;65.07;102645.75;5055825;28;20491;-96
2021/08/25 07:01:44;;;;;;;5.15;1.67;;;;;;;19.05;65.04;102644.84;5037785;28;20473;-96
2021/08/25 07:04:10;;;;;;;0.10;0.10;;;;;;;19.10;64.82;102644.75;5055200;28;20017;-93
2021/08/25 07:06:36;;;;;;;0.32;0.32;;;;;;;19.13;64.69;102640.16;5055162;28;20037;-95
2021/08/25 07:09:03;;;;;;;0.08;0.08;;;;;;;19.18;64.59;102648.97;5055802;28;20025;-96
2021/08/25 07:11:29;;;;;;;0.10;0.10;;;;;;;19.18;64.82;102651.66;5055105;28;20479;-96
2021/08/25 07:13:55;;;;;;;0.10;0.10;;;;;;;19.24;64.58;102637.19;5038839;28;20037;-96
2021/08/25 07:16:22;;;;;;;1.08;0.90;;;;;;;19.32;64.69;102642.34;5058915;28;20476;-96
2021/08/25 07:18:54;;;;;;;0.52;0.52;;;;;;;19.35;64.55;102635.09;5055616;28;20125;-95
2021/08/25 07:21:21;;;;;;;0.25;0.25;;;;;;;19.43;64.51;102636.66;5055223;28;20025;-96
2021/08/25 07:23:50;;;;;;;0.10;0.10;;;;;;;19.49;64.26;102633.78;5055506;28;20032;-96
2021/08/25 07:26:18;;;;;;;0.35;0.35;;;;;;;19.54;64.32;102637.25;5038158;28;20044;-96
2021/08/25 07:28:45;;;;;;;0.47;0.47;;;;;;;19.62;64.24;102631.63;5055344;28;20490;-94
2021/08/25 07:31:13;;;;;;;0.30;0.30;;;;;;;19.68;64.25;102639.53;5054944;28;20033;-94
2021/08/25 07:33:45;;;;;;;0.10;0.10;;;;;;;19.79;64.06;102639.19;5056099;28;20099;-96
2021/08/25 07:36:11;;;;;;;0.40;0.40;;;;;;;19.76;63.81;102634.78;5056199;28;20039;-96
2021/08/25 07:38:41;;;;;;;0.52;0.52;;;;;;;19.79;63.67;102639.19;5055855;28;20107;-96
2021/08/25 07:41:12;;;;;;;0.10;0.10;;;;;;;19.83;63.38;102636.38;5056480;28;20033;-96
2021/08/25 07:43:39;;;;;;;1.52;0.50;;;;;;;19.87;63.59;102637.19;5056481;28;20437;-96
2021/08/25 07:46:06;;;;;;;0.10;0.10;;;;;;;19.90;63.67;102636.19;5038335;28;20452;-93
2021/08/25 07:48:33;;;;;;;0.22;0.22;;;;;;;19.97;63.77;102629.72;5055849;28;20078;-96
2021/08/25 07:51:00;;;;;;;0.15;0.15;;;;;;;20.02;63.77;102622.38;5038522;28;20056;-96
2021/08/25 07:53:26;;;;;;;0.25;0.25;;;;;;;20.07;63.86;102633.00;5056686;28;20122;-96
2021/08/25 07:55:52;;;;;;;0.30;0.30;;;;;;;20.15;63.60;102620.16;5037788;28;20021;-95
2021/08/25 07:58:18;;;;;;;0.10;0.10;;;;;;;20.25;63.26;102618.94;5054889;28;20095;-95
2021/08/25 08:00:44;;;;;;;0.25;0.25;;;;;;;20.34;63.48;102629.41;5055058;28;20044;-95
2021/08/25 08:03:10;;;;;;;0.10;0.10;;;;;;;20.40;63.26;102624.75;5054984;28;20057;-96
2021/08/25 08:05:37;;;;;;;0.10;0.10;;;;;;;20.42;63.64;102628.28;5055058;28;20029;-96
2021/08/25 08:08:09;;;;;;;0.08;0.08;;;;;;;20.52;63.63;102618.94;5054877;28;20029;-96
2021/08/25 08:10:35;;;;;;;0.75;0.32;;;;;;;20.65;63.25;102623.00;5054690;28;20037;-93
2021/08/25 08:13:05;;;;;;;0.10;0.10;;;;;;;20.68;63.21;102617.50;5059090;28;20052;-96
2021/08/25 08:15:33;;;;;;;6.00;1.48;;;;;;;20.70;63.15;102620.16;5061177;28;20035;-96
2021/08/25 08:18:08;;;;;;;0.80;0.80;;;;;;;20.72;63.45;102626.38;5059802;28;20533;-96
2021/08/25 08:20:34;;;;;;;0.40;0.40;;;;;;;20.88;63.19;102621.34;5059794;28;20029;-96
2021/08/25 08:23:00;;;;;;;0.90;0.65;;;;;;;20.88;62.56;102620.47;5060499;28;20037;-96
2021/08/25 08:25:27;;;;;;;0.95;0.95;;;;;;;20.92;62.18;102617.63;5058617;28;20128;-96
2021/08/25 08:27:53;;;;;;;0.65;0.65;;;;;;;21.04;62.07;102610.91;5041633;28;20061;-96
2021/08/25 08:30:19;;;;;;;0.63;0.63;;;;;;;21.09;62.14;102613.44;5059019;28;20036;-96
2021/08/25 08:32:45;;;;;;;0.45;0.45;;;;;;;21.12;61.80;102610.63;5059060;28;20084;-96
2021/08/25 08:35:15;;;;;;;3.60;1.75;;;;;;;21.27;61.80;102609.16;5060225;28;20033;-96
2021/08/25 08:37:41;;;;;;;0.40;0.40;;;;;;;21.32;61.66;102605.38;5058830;28;20040;-94
2021/08/25 08:40:08;;;;;;;0.10;0.10;;;;;;;21.32;61.74;102616.16;5059626;28;20037;-94
2021/08/25 08:42:35;;;;;;;1.05;0.95;;;;;;;21.44;60.78;102616.63;5062856;28;20041;-93
2021/08/25 08:45:07;;;;;;;0.15;0.15;;;;;;;21.50;60.78;102602.91;5051766;28;20097;-84
2021/08/25 08:47:34;;;;;;;0.50;0.50;;;;;;;21.65;60.00;102607.75;5078575;28;20084;-93
2021/08/25 08:50:01;;;;;;;0.20;0.20;;;;;;;21.80;59.73;102600.88;5036715;28;20178;-91
2021/08/25 08:52:28;;;;;;;0.65;0.38;;;;;;;21.96;59.88;102601.13;5066107;28;20044;-95
2021/08/25 08:54:59;;;;;;;0.38;0.38;;;;;;;22.14;60.25;102598.63;5069562;28;20017;-96
2021/08/25 08:57:29;;;;;;;0.75;0.75;;;;;;;22.21;59.36;102589.34;5053311;28;20025;-94
2021/08/25 09:00:19;;;;;;;0.68;0.68;;;;;;;22.25;57.84;102587.41;5073855;28;20084;-92
2021/08/25 09:03:29;;;;;;;0.65;0.65;;;;;;;22.41;58.83;102588.53;5088439;22;20037;-80
2021/08/25 09:06:42;;;;;;;0.40;0.40;;;;;;;22.48;57.61;102583.78;5166526;22;20052;-82
2021/08/25 09:09:31;;;;;;;0.32;0.32;;;;;;;22.43;58.37;102573.16;5078968;28;20037;-94
2021/08/25 09:12:28;;;;;;;0.47;0.47;;;;;;;22.55;57.93;102566.31;5051807;22;20034;-82
2021/08/25 09:15:38;;;;;;;1.10;1.10;;;;;;;22.65;56.00;102563.25;5057624;28;20049;-93
2021/08/25 09:18:21;;;;;;;0.50;0.50;;;;;;;22.69;56.65;102568.44;5054324;28;20045;-86
2021/08/25 09:21:27;;;;;;;;;;;;;;;23.04;55.36;102566.00;5210217;22;20079;-88
2021/08/25 09:24:40;;;;;;;0.10;0.10;;;;;;;23.15;55.33;102570.88;5079074;28;19920;-83
2021/08/25 09:27:37;;;;;;;0.15;0.15;;;;;;;23.24;55.09;102565.09;5102732;22;20127;-81
2021/08/25 09:30:24;;;;;;;0.10;0.10;;;;;;;23.37;53.76;102564.53;5057532;28;20037;-85
2021/08/25 09:33:32;;;;;;;0.10;0.10;;;;;;;23.59;54.16;102564.41;5212413;22;20040;-81
2021/08/25 09:44:50;;;;;;;2.08;1.33;;;;;;;23.93;53.08;102556.50;5248766;22;20128;-82
2021/08/25 09:50:43;;;;;;;0.20;0.20;;;;;;;24.11;52.85;102565.50;5160481;22;20033;-81
2021/08/25 09:54:16;;;;;;;0.57;0.57;;;;;;;24.33;52.69;102562.59;5083616;22;20048;-82
2021/08/25 09:57:43;;;;;;;1.23;1.13;;;;;;;24.32;50.63;102552.72;5193903;22;20033;-80
2021/08/25 10:01:07;;;;;;;0.17;0.17;;;;;;;24.43;51.32;102561.16;5119025;22;20112;-81
2021/08/25 10:04:03;;;;;;;0.40;0.40;;;;;;;24.39;50.69;102559.59;5251821;22;20325;-80
2021/08/25 10:07:08;;;;;;;0.20;0.20;;;;;;;24.67;51.12;102553.63;5154523;22;20112;-80
2021/08/25 10:10:24;;;;;;;0.35;0.35;;;;;;;24.76;50.13;102557.69;5062218;28;20079;-82
2021/08/25 10:13:27;;;;;;;0.22;0.22;;;;;;;24.89;49.79;102549.78;5168105;22;20041;-82
2021/08/25 10:17:02;;;;;;;0.28;0.28;;;;;;;24.97;46.79;102546.63;5093749;22;20080;-84
2021/08/25 10:20:34;;;;;;;0.15;0.15;;;;;;;25.04;47.34;102539.94;5216006;22;20024;-82
2021/08/25 10:24:04;;;;;;;0.10;0.10;;;;;;;25.06;48.04;102538.03;5184737;22;20138;-82
2021/08/25 10:27:32;;;;;;;0.65;0.65;;;;;;;25.15;48.72;102528.50;5276725;22;20048;-84
2021/08/25 10:31:03;;;;;;;0.17;0.17;;;;;;;25.15;46.65;102510.38;5200983;22;20040;-81
2021/08/25 10:49:41;;;;;;;0.90;0.90;;;;;;;25.59;44.13;102491.69;5201764;22;20025;-82
2021/08/25 10:58:31;;;;;;;0.10;0.10;;;;;;;25.83;45.13;102487.56;5115555;22;20049;-81
2021/08/25 11:01:33;;;;;;;0.10;0.10;;;;;;;25.98;46.01;102483.06;5398182;22;20057;-92
2021/08/25 11:07:58;;;;;;;0.35;0.35;;;;;;;26.15;44.82;102465.75;5172088;22;20025;-82
2021/08/25 11:14:01;;;;;;;0.57;0.57;;;;;;;26.24;44.68;102460.75;5206054;22;20028;-96
2021/08/25 11:22:49;;;;;;;0.57;0.57;;;;;;;26.44;42.64;102444.09;5062971;22;20065;-83
2021/08/25 11:26:20;;;;;;;0.10;0.10;;;;;;;26.52;41.80;102445.44;5084504;22;20044;-84
2021/08/25 11:29:52;;;;;;;0.10;0.10;;;;;;;26.65;40.55;102432.81;5072407;28;20029;-83
2021/08/25 11:33:09;;;;;;;0.10;0.10;;;;;;;26.62;42.04;102427.59;5072471;28;20049;-86
2021/08/25 11:36:34;;;;;;;0.10;0.10;;;;;;;26.52;43.03;102426.41;5194299;22;20025;-92
2021/08/25 11:44:46;;;;;;;0.10;0.10;;;;;;;26.79;43.79;102419.28;5242174;22;20004;-87
2021/08/25 11:47:54;;;;;;;0.20;0.20;;;;;;;27.00;42.89;102405.22;5058863;28;20038;-86
2021/08/25 11:51:08;;;;;;;0.80;0.70;;;;;;;27.03;42.29;102405.06;5283463;22;20041;-83
2021/08/25 11:54:04;;;;;;;0.10;0.10;;;;;;;27.27;42.87;102404.41;5081527;28;20045;-87
2021/08/25 11:59:36;;;;;;;0.20;0.20;;;;;;;27.37;39.65;102396.50;5121155;22;20093;-93
2021/08/25 12:02:43;;;;;;;0.40;0.40;;;;;;;27.25;41.05;102400.91;5060937;28;20033;-90
2021/08/25 12:05:40;;;;;;;0.13;0.13;;;;;;;27.04;41.34;102395.03;5146057;22;20090;-85
2021/08/25 12:11:31;;;;;;;0.15;0.15;;;;;;;27.04;40.44;102392.31;5612411;22;20029;-83
2021/08/25 12:17:22;;;;;;;0.35;0.35;;;;;;;26.79;42.00;102392.06;5635200;22;20019;-91
2021/08/25 12:23:21;;;;;;;0.30;0.30;;;;;;;26.67;42.95;102384.69;5242870;22;20051;-83
2021/08/25 12:26:36;;;;;;;1.95;0.68;;;;;;;26.55;42.34;102385.47;5094476;22;20048;-82
2021/08/25 12:30:03;;;;;;;0.25;0.25;;;;;;;26.12;42.69;102376.31;5338076;22;20035;-84
2021/08/25 12:35:43;;;;;;;0.30;0.30;;;;;;;25.94;42.25;102377.41;5710540;22;20098;-89
2021/08/25 12:39:09;;;;;;;3.20;2.17;;;;;;;26.35;41.68;102376.72;5165838;22;20033;-83
2021/08/25 12:45:34;;;;;;;7.20;0.90;;;;;;;26.42;41.31;102378.09;5085420;22;20039;-92
2021/08/25 12:48:07;;;;;;;0.70;0.28;;;;;;;26.22;41.96;102373.91;5242110;22;20059;-82
2021/08/25 12:56:35;;;;;;;0.57;0.57;;;;;;;26.14;40.85;102368.97;5082830;22;19911;-85
2021/08/25 12:59:47;;;;;;;0.10;0.10;;;;;;;26.38;40.89;102362.06;5107315;22;20037;-84
2021/08/25 13:03:17;;;;;;;1.90;0.98;;;;;;;26.28;39.64;102354.50;5204609;22;20025;-90
2021/08/25 13:12:16;;;;;;;0.10;0.10;;;;;;;26.44;37.91;102348.97;5097008;22;20045;-87
2021/08/25 13:15:12;;;;;;;0.10;0.10;;;;;;;26.42;37.91;102350.06;5079084;28;20040;-92
2021/08/25 13:18:33;;;;;;;0.10;0.10;;;;;;;26.63;37.99;102334.19;5117908;22;20053;-92
2021/08/25 13:22:06;;;;;;;0.10;0.10;;;;;;;26.68;37.03;102329.34;5375616;22;20033;-85
2021/08/25 13:28:12;;;;;;;0.10;0.10;;;;;;;26.37;37.63;102325.88;5108522;22;20064;-84